createdAt,value
2023-10-08T00:02:26.960Z,64.60
2023-10-08T00:05:17.280Z,64.80
2023-10-08T00:08:03.345Z,64.60
2023-10-08T00:10:49.684Z,64.60
2023-10-08T00:13:40.891Z,64.40
2023-10-08T00:16:29.575Z,64.40
2023-10-08T00:19:16.542Z,64.20
2023-10-08T00:22:07.121Z,64.10
2023-10-08T00:24:59.053Z,64.00
2023-10-08T00:27:46.557Z,63.80
2023-10-08T00:30:35.152Z,64.00
2023-10-08T00:33:21.118Z,63.50
2023-10-08T00:36:19.758Z,63.90
2023-10-08T00:39:11.835Z,63.10
2023-10-08T00:42:01.616Z,63.40
2023-10-08T00:44:52.762Z,63.20
2023-10-08T00:47:44.723Z,63.10
2023-10-08T00:50:43.737Z,62.70
2023-10-08T00:53:30.427Z,63.20
2023-10-08T00:56:20.295Z,62.60
2023-10-08T00:59:07.588Z,62.50
2023-10-08T01:02:00.583Z,62.80
2023-10-08T01:04:47.017Z,62.40
2023-10-08T01:07:36.662Z,62.40
2023-10-08T01:10:25.916Z,62.10
2023-10-08T01:13:22.250Z,62.00
2023-10-08T01:16:11.007Z,62.00
2023-10-08T01:18:57.346Z,62.00
2023-10-08T01:21:45.686Z,62.50
2023-10-08T01:24:32.087Z,61.80
2023-10-08T01:27:25.749Z,61.80
2023-10-08T01:30:19.267Z,62.10
2023-10-08T01:33:06.247Z,61.80
2023-10-08T01:35:52.379Z,61.40
2023-10-08T01:38:38.484Z,61.70
2023-10-08T01:41:34.638Z,61.50
2023-10-08T01:44:20.853Z,61.80
2023-10-08T01:47:07.318Z,61.50
2023-10-08T01:50:01.038Z,61.70
2023-10-08T01:52:47.827Z,62.00
2023-10-08T01:55:46.189Z,61.70
2023-10-08T01:58:34.667Z,61.80
2023-10-08T02:01:22.156Z,61.80
2023-10-08T02:04:08.824Z,61.90
2023-10-08T02:06:55.196Z,62.00
2023-10-08T02:09:41.960Z,61.70
2023-10-08T02:12:29.061Z,61.70
2023-10-08T02:15:15.201Z,61.30
2023-10-08T02:18:01.544Z,61.80
2023-10-08T02:20:49.564Z,61.90
2023-10-08T02:23:36.150Z,61.70
2023-10-08T02:26:22.717Z,61.60
2023-10-08T02:29:13.745Z,61.00
2023-10-08T02:32:00.468Z,61.20
2023-10-08T02:34:46.782Z,61.00
2023-10-08T02:37:36.595Z,61.00
2023-10-08T02:40:29.419Z,60.80
2023-10-08T02:43:16.602Z,60.80
2023-10-08T02:46:03.387Z,60.70
2023-10-08T02:48:49.820Z,60.40
2023-10-08T02:51:35.842Z,60.50
2023-10-08T02:54:33.143Z,60.10
2023-10-08T02:57:22.856Z,59.80
2023-10-08T03:00:14.023Z,60.10
2023-10-08T03:03:04.093Z,59.70
2023-10-08T03:05:52.321Z,60.00
2023-10-08T03:08:43.085Z,59.90
2023-10-08T03:11:29.558Z,59.20
2023-10-08T03:14:22.987Z,59.10
2023-10-08T03:17:09.609Z,59.50
2023-10-08T03:20:02.781Z,59.30
2023-10-08T03:22:50.917Z,59.60
2023-10-08T03:25:42.626Z,59.80
2023-10-08T03:28:31.027Z,59.40
2023-10-08T03:31:18.742Z,59.30
2023-10-08T03:34:07.476Z,59.20
2023-10-08T03:37:00.861Z,59.90
2023-10-08T03:39:54.136Z,59.10
2023-10-08T03:42:42.716Z,59.50
2023-10-08T03:45:47.443Z,59.40
2023-10-08T03:48:38.191Z,59.70
2023-10-08T03:51:28.433Z,60.00
2023-10-08T03:54:17.413Z,59.90
2023-10-08T03:57:14.473Z,60.20
2023-10-08T04:00:00.601Z,59.70
2023-10-08T04:02:56.841Z,59.80
2023-10-08T04:06:15.716Z,60.30
2023-10-08T04:09:11.183Z,60.60
2023-10-08T04:12:04.486Z,60.10
2023-10-08T04:14:50.734Z,60.40
2023-10-08T04:17:44.955Z,60.80
2023-10-08T04:20:34.914Z,61.60
2023-10-08T04:23:24.353Z,61.80
2023-10-08T04:26:10.569Z,62.10
2023-10-08T04:29:03.986Z,62.80
2023-10-08T04:32:01.980Z,62.10
2023-10-08T04:34:48.597Z,63.10
2023-10-08T04:37:34.862Z,65.40
2023-10-08T04:40:24.914Z,64.30
2023-10-08T04:43:11.910Z,65.10
2023-10-08T04:45:59.671Z,65.00
2023-10-08T04:48:50.969Z,65.10
2023-10-08T04:51:44.838Z,65.30
2023-10-08T04:54:31.353Z,65.30
2023-10-08T04:57:18.271Z,64.60
2023-10-08T05:00:09.994Z,63.70
2023-10-08T05:03:05.034Z,63.10
2023-10-08T05:06:09.100Z,63.20
2023-10-08T05:09:11.518Z,62.60
2023-10-08T05:12:11.752Z,62.80
2023-10-08T05:15:18.076Z,62.50
2023-10-08T05:18:13.722Z,62.50
2023-10-08T05:21:01.072Z,62.10
2023-10-08T05:24:09.865Z,61.60
2023-10-08T05:27:16.507Z,62.10
2023-10-08T05:30:17.746Z,62.00
2023-10-08T05:33:04.858Z,61.80
2023-10-08T05:35:55.837Z,62.10
2023-10-08T05:38:50.669Z,61.50
2023-10-08T05:41:40.849Z,62.80
2023-10-08T05:44:39.526Z,62.20
2023-10-08T05:47:46.098Z,62.90
2023-10-08T05:50:40.678Z,63.00
2023-10-08T05:53:44.966Z,64.10
2023-10-08T05:56:43.229Z,64.20
2023-10-08T05:59:39.868Z,64.50
2023-10-08T06:02:30.481Z,64.30
2023-10-08T06:05:28.691Z,64.60
2023-10-08T06:08:16.217Z,65.10
2023-10-08T06:11:08.356Z,66.30
2023-10-08T06:14:01.268Z,65.50
2023-10-08T06:16:48.275Z,64.50
2023-10-08T06:19:34.653Z,64.60
2023-10-08T06:22:24.894Z,65.50
2023-10-08T06:25:18.842Z,65.50
2023-10-08T06:28:04.993Z,66.00
2023-10-08T06:30:56.677Z,65.00
2023-10-08T06:33:44.926Z,65.40
2023-10-08T06:36:32.014Z,65.70
2023-10-08T06:39:20.227Z,65.80
2023-10-08T06:42:06.358Z,66.50
2023-10-08T06:44:59.246Z,67.00
2023-10-08T06:47:46.862Z,66.40
2023-10-08T06:50:42.013Z,67.40
2023-10-08T06:53:30.729Z,66.20
2023-10-08T06:56:20.818Z,66.50
2023-10-08T06:59:10.736Z,67.00
2023-10-08T07:01:57.833Z,67.40
2023-10-08T07:04:47.869Z,67.00
2023-10-08T07:07:40.408Z,66.40
2023-10-08T07:10:26.637Z,66.60
2023-10-08T07:13:12.684Z,66.60
2023-10-08T07:15:59.136Z,66.70
2023-10-08T07:18:53.726Z,66.50
2023-10-08T07:21:46.127Z,67.30
2023-10-08T07:24:35.936Z,67.50
2023-10-08T07:27:33.541Z,67.70
2023-10-08T07:30:28.001Z,66.60
2023-10-08T07:33:19.171Z,66.30
2023-10-08T07:36:13.251Z,66.70
2023-10-08T07:39:01.096Z,66.50
2023-10-08T07:41:49.370Z,67.20
2023-10-08T07:44:40.281Z,67.00
2023-10-08T07:47:29.224Z,66.50
2023-10-08T07:50:19.415Z,66.70
2023-10-08T07:53:05.799Z,66.30
2023-10-08T07:55:52.795Z,66.60
2023-10-08T07:58:38.911Z,66.70
2023-10-08T08:01:26.365Z,66.50
2023-10-08T08:04:24.830Z,67.30
2023-10-08T08:07:17.813Z,67.50
2023-10-08T08:10:12.144Z,67.30
2023-10-08T08:12:58.587Z,66.50
2023-10-08T08:15:52.778Z,67.40
2023-10-08T08:18:39.416Z,67.20
2023-10-08T08:21:26.860Z,66.50
2023-10-08T08:24:14.429Z,66.90
2023-10-08T08:27:12.347Z,67.10
2023-10-08T08:30:10.932Z,67.80
2023-10-08T08:32:57.887Z,67.40
2023-10-08T08:35:46.432Z,67.20
2023-10-08T08:38:33.797Z,68.00
2023-10-08T08:41:21.996Z,68.60
2023-10-08T08:44:09.196Z,67.80
2023-10-08T08:46:58.439Z,68.60
2023-10-08T08:49:48.842Z,67.90
2023-10-08T08:52:38.512Z,68.10
2023-10-08T08:55:28.536Z,68.50
2023-10-08T08:58:15.042Z,68.50
2023-10-08T09:01:01.668Z,69.00
2023-10-08T09:03:49.822Z,69.60
2023-10-08T09:06:40.655Z,70.00
2023-10-08T09:09:34.804Z,69.90
2023-10-08T09:12:22.736Z,68.90
2023-10-08T09:15:10.371Z,69.30
2023-10-08T09:17:57.809Z,68.40
2023-10-08T09:20:45.243Z,69.30
2023-10-08T09:23:31.777Z,68.90
2023-10-08T09:26:24.815Z,69.50
2023-10-08T09:29:13.012Z,70.00
2023-10-08T09:32:00.954Z,69.60
2023-10-08T09:34:47.147Z,69.70
2023-10-08T09:37:35.522Z,70.70
2023-10-08T09:40:22.566Z,70.70
2023-10-08T09:43:11.765Z,70.20
2023-10-08T09:46:25.236Z,70.40
2023-10-08T09:49:14.059Z,68.90
2023-10-08T09:52:07.330Z,70.20
2023-10-08T09:55:13.295Z,69.40
2023-10-08T09:58:00.010Z,69.80
2023-10-08T10:00:50.070Z,68.80
2023-10-08T10:03:37.465Z,69.50
2023-10-08T10:06:24.290Z,67.60
2023-10-08T10:09:22.171Z,69.10
2023-10-08T10:12:10.920Z,67.90
2023-10-08T10:14:58.098Z,67.60
2023-10-08T10:17:45.486Z,68.80
2023-10-08T10:20:33.242Z,67.60
2023-10-08T10:23:44.165Z,67.30
2023-10-08T10:26:32.026Z,68.10
2023-10-08T10:29:22.532Z,68.80
2023-10-08T10:32:10.902Z,68.60
2023-10-08T10:34:56.951Z,70.20
2023-10-08T10:37:43.088Z,68.50
2023-10-08T10:40:40.632Z,68.70
2023-10-08T10:43:33.870Z,69.40
2023-10-08T10:46:32.112Z,69.50
2023-10-08T10:49:22.951Z,68.80
2023-10-08T10:52:13.452Z,68.60
2023-10-08T10:55:16.653Z,68.90
2023-10-08T10:58:13.087Z,70.10
2023-10-08T11:01:00.912Z,69.70
2023-10-08T11:03:49.718Z,70.00
2023-10-08T11:06:38.913Z,70.50
2023-10-08T11:09:39.131Z,70.50
2023-10-08T11:12:33.709Z,71.30
2023-10-08T11:15:20.404Z,71.00
2023-10-08T11:18:15.739Z,71.10
2023-10-08T11:21:17.431Z,71.50
2023-10-08T11:24:10.418Z,71.80
2023-10-08T11:27:15.156Z,71.70
2023-10-08T11:30:01.892Z,71.70
2023-10-08T11:32:49.525Z,72.30
2023-10-08T11:35:36.186Z,71.70
2023-10-08T11:38:23.587Z,71.70
2023-10-08T11:41:23.302Z,71.50
2023-10-08T11:44:14.580Z,71.90
2023-10-08T11:47:12.376Z,72.10
2023-10-08T11:50:11.170Z,71.00
2023-10-08T11:53:06.541Z,71.60
2023-10-08T11:55:57.765Z,71.20
2023-10-08T11:58:45.691Z,71.70
2023-10-08T12:01:36.399Z,71.10
2023-10-08T12:04:23.963Z,71.40
2023-10-08T12:07:10.458Z,71.30
2023-10-08T12:09:56.478Z,71.70
2023-10-08T12:12:42.756Z,71.50
2023-10-08T12:15:39.563Z,71.90
2023-10-08T12:18:26.291Z,72.10
2023-10-08T12:21:15.762Z,72.30
2023-10-08T12:24:06.551Z,72.50
2023-10-08T12:26:53.398Z,71.70
2023-10-08T12:29:40.814Z,72.20
2023-10-08T12:32:27.720Z,71.90
2023-10-08T12:35:14.081Z,72.00
2023-10-08T12:38:00.169Z,72.30
2023-10-08T12:40:48.940Z,72.20
2023-10-08T12:43:39.729Z,71.70
2023-10-08T12:46:26.074Z,73.10
2023-10-08T12:49:12.152Z,72.70
2023-10-08T12:52:00.088Z,72.90
2023-10-08T12:54:46.740Z,73.10
2023-10-08T12:57:35.542Z,73.00
2023-10-08T13:00:24.542Z,73.10
2023-10-08T13:03:16.774Z,72.80
2023-10-08T13:06:06.110Z,72.80
2023-10-08T13:08:54.124Z,72.90
2023-10-08T13:11:40.900Z,73.20
2023-10-08T13:14:26.928Z,73.10
2023-10-08T13:17:13.339Z,73.30
2023-10-08T13:19:59.264Z,73.40
2023-10-08T13:22:45.535Z,73.00
2023-10-08T13:25:37.071Z,72.00
2023-10-08T13:28:24.324Z,73.00
2023-10-08T13:31:13.516Z,72.60
2023-10-08T13:34:04.110Z,72.90
2023-10-08T13:36:50.929Z,72.50
2023-10-08T13:39:37.046Z,73.20
2023-10-08T13:42:23.020Z,72.50
2023-10-08T13:45:10.384Z,72.70
2023-10-08T13:47:57.812Z,73.60
2023-10-08T13:50:45.138Z,73.40
2023-10-08T13:53:37.500Z,74.20
2023-10-08T13:56:27.685Z,74.00
2023-10-08T13:59:14.700Z,73.30
2023-10-08T14:02:03.368Z,73.40
2023-10-08T14:04:51.756Z,74.40
2023-10-08T14:07:39.162Z,74.70
2023-10-08T14:10:30.779Z,74.30
2023-10-08T14:13:20.684Z,74.20
2023-10-08T14:16:09.570Z,74.10
2023-10-08T14:19:00.972Z,73.80
2023-10-08T14:21:56.302Z,74.60
2023-10-08T14:24:42.712Z,75.10
2023-10-08T14:27:33.415Z,74.30
2023-10-08T14:30:25.276Z,73.80
2023-10-08T14:33:14.544Z,73.30
2023-10-08T14:36:19.938Z,74.10
2023-10-08T14:39:24.622Z,74.40
2023-10-08T14:42:29.352Z,73.90
2023-10-08T14:45:18.907Z,75.70
2023-10-08T14:48:12.360Z,75.30
2023-10-08T14:51:01.512Z,75.30
2023-10-08T14:53:48.956Z,75.80
2023-10-08T14:56:37.390Z,76.10
2023-10-08T14:59:24.848Z,76.50
2023-10-08T15:02:12.027Z,77.30
2023-10-08T15:04:58.799Z,77.10
2023-10-08T15:07:44.999Z,77.20
2023-10-08T15:10:31.655Z,77.70
2023-10-08T15:13:18.072Z,77.70
2023-10-08T15:16:05.538Z,78.00
2023-10-08T15:18:52.154Z,77.90
2023-10-08T15:21:40.362Z,77.80
2023-10-08T15:24:26.514Z,77.60
2023-10-08T15:27:12.921Z,77.90
2023-10-08T15:29:59.292Z,78.60
2023-10-08T15:32:46.697Z,78.00
2023-10-08T15:35:34.175Z,78.10
2023-10-08T15:38:20.581Z,77.00
2023-10-08T15:41:06.613Z,77.70
2023-10-08T15:43:55.074Z,77.50
2023-10-08T15:46:43.181Z,78.60
2023-10-08T15:49:29.122Z,79.80
2023-10-08T15:52:16.001Z,80.70
2023-10-08T15:55:02.209Z,80.80
2023-10-08T15:57:48.234Z,80.20
2023-10-08T16:00:35.037Z,80.10
2023-10-08T16:03:21.424Z,80.20
2023-10-08T16:06:07.934Z,80.30
2023-10-08T16:08:54.154Z,79.80
2023-10-08T16:11:40.404Z,79.80
2023-10-08T16:14:26.414Z,79.90
2023-10-08T16:17:15.170Z,79.90
2023-10-08T16:20:10.596Z,80.20
2023-10-08T16:22:56.728Z,79.80
2023-10-08T16:25:43.384Z,80.10
2023-10-08T16:28:31.855Z,82.20
2023-10-08T16:31:18.133Z,82.40
2023-10-08T16:34:04.188Z,82.80
2023-10-08T16:36:50.892Z,82.50
2023-10-08T16:39:38.699Z,82.30
2023-10-08T16:42:24.704Z,82.30
2023-10-08T16:45:11.436Z,82.60
2023-10-08T16:48:00.012Z,82.70
2023-10-08T16:50:46.431Z,82.80
2023-10-08T16:53:32.416Z,82.70
2023-10-08T16:56:18.465Z,82.70
2023-10-08T16:59:07.503Z,82.60
2023-10-08T17:01:53.578Z,82.40
2023-10-08T17:04:40.297Z,82.70
2023-10-08T17:07:26.779Z,82.80
2023-10-08T17:10:13.225Z,82.70
2023-10-08T17:12:59.705Z,83.10
2023-10-08T17:15:46.671Z,82.80
2023-10-08T17:18:34.207Z,82.70
2023-10-08T17:21:23.554Z,83.20
2023-10-08T17:24:10.542Z,82.90
2023-10-08T17:27:08.245Z,83.00
2023-10-08T17:30:00.289Z,83.50
2023-10-08T17:32:49.087Z,83.70
2023-10-08T17:35:36.908Z,83.40
2023-10-08T17:38:24.023Z,83.10
2023-10-08T17:41:10.539Z,83.40
2023-10-08T17:43:56.694Z,83.70
2023-10-08T17:46:47.270Z,84.60
2023-10-08T17:49:36.986Z,84.40
2023-10-08T17:52:24.365Z,84.70
2023-10-08T17:55:14.140Z,84.70
2023-10-08T17:58:02.314Z,84.60
2023-10-08T18:00:48.427Z,84.30
2023-10-08T18:03:34.604Z,84.40
2023-10-08T18:06:21.203Z,83.90
2023-10-08T18:09:11.307Z,84.20
2023-10-08T18:11:58.982Z,84.30
2023-10-08T18:14:45.276Z,84.40
2023-10-08T18:17:31.362Z,84.50
2023-10-08T18:20:20.978Z,85.00
2023-10-08T18:23:07.025Z,84.70
2023-10-08T18:25:53.335Z,85.00
2023-10-08T18:28:40.947Z,84.40
2023-10-08T18:31:29.268Z,84.20
2023-10-08T18:34:15.546Z,84.70
2023-10-08T18:37:01.816Z,84.50
2023-10-08T18:39:51.350Z,85.60
2023-10-08T18:42:37.652Z,85.50
2023-10-08T18:45:24.091Z,85.70
2023-10-08T18:48:10.808Z,85.40
2023-10-08T18:51:08.729Z,85.30
2023-10-08T18:53:56.972Z,84.60
2023-10-08T18:56:43.095Z,84.70
2023-10-08T18:59:32.247Z,85.30
2023-10-08T19:02:18.181Z,86.00
2023-10-08T19:05:06.987Z,86.70
2023-10-08T19:07:54.866Z,87.00
2023-10-08T19:10:41.419Z,87.20
2023-10-08T19:13:30.930Z,87.10
2023-10-08T19:16:18.000Z,86.90
2023-10-08T19:19:05.611Z,87.00
2023-10-08T19:21:51.867Z,87.20
2023-10-08T19:24:38.414Z,87.70
2023-10-08T19:27:25.354Z,88.20
2023-10-08T19:30:13.666Z,88.40
2023-10-08T19:33:01.892Z,88.20
2023-10-08T19:35:55.999Z,87.90
2023-10-08T19:38:42.638Z,87.80
2023-10-08T19:41:29.380Z,88.00
2023-10-08T19:44:16.656Z,88.40
2023-10-08T19:47:03.253Z,89.20
2023-10-08T19:49:49.604Z,89.20
2023-10-08T19:52:35.659Z,89.90
2023-10-08T19:55:21.760Z,90.00
2023-10-08T19:58:07.620Z,90.00
2023-10-08T20:00:53.668Z,90.00
2023-10-08T20:03:40.927Z,90.10
2023-10-08T20:06:27.900Z,90.10
2023-10-08T20:09:20.388Z,90.00
2023-10-08T20:12:09.054Z,90.10
2023-10-08T20:14:55.410Z,90.20
2023-10-08T20:17:45.255Z,90.30
2023-10-08T20:20:31.494Z,90.40
2023-10-08T20:23:18.765Z,90.40
2023-10-08T20:26:14.742Z,90.40
2023-10-08T20:29:03.248Z,90.30
2023-10-08T20:31:50.364Z,90.50
2023-10-08T20:34:36.303Z,90.70
2023-10-08T20:37:24.565Z,90.80
2023-10-08T20:40:15.293Z,90.80
2023-10-08T20:43:02.152Z,90.90
2023-10-08T20:45:48.303Z,91.10
2023-10-08T20:48:35.315Z,91.30
2023-10-08T20:51:21.717Z,91.40
2023-10-08T20:54:09.304Z,91.50
2023-10-08T20:56:55.265Z,91.60
2023-10-08T20:59:41.416Z,91.70
2023-10-08T21:02:28.660Z,91.80
2023-10-08T21:05:14.748Z,91.80
2023-10-08T21:08:01.214Z,92.00
2023-10-08T21:11:00.457Z,92.10
2023-10-08T21:13:47.106Z,92.10
2023-10-08T21:16:33.518Z,92.30
2023-10-08T21:19:19.664Z,92.20
2023-10-08T21:22:05.962Z,92.30
2023-10-08T21:24:52.125Z,92.40
2023-10-08T21:27:40.188Z,92.40
2023-10-08T21:30:29.530Z,92.30
2023-10-08T21:33:16.841Z,92.40
2023-10-08T21:36:03.015Z,92.20
2023-10-08T21:38:49.145Z,92.20
2023-10-08T21:41:35.426Z,92.40
2023-10-08T21:44:21.574Z,92.30
2023-10-08T21:47:07.725Z,92.20
2023-10-08T21:49:53.819Z,92.40
2023-10-08T21:52:48.289Z,92.50
2023-10-08T21:55:34.542Z,92.60
2023-10-08T21:58:20.502Z,92.70
2023-10-08T22:01:19.230Z,92.90
2023-10-08T22:04:09.461Z,93.10
2023-10-08T22:06:55.880Z,93.30
2023-10-08T22:09:43.012Z,93.50
2023-10-08T22:12:28.900Z,93.10
2023-10-08T22:15:26.847Z,93.10
2023-10-08T22:18:13.497Z,93.40
2023-10-08T22:21:11.856Z,93.40
2023-10-08T22:23:58.487Z,93.40
2023-10-08T22:26:46.413Z,93.50
2023-10-08T22:29:35.828Z,93.50
2023-10-08T22:32:22.566Z,93.50
2023-10-08T22:35:15.404Z,93.70
2023-10-08T22:38:02.359Z,93.80
2023-10-08T22:41:00.796Z,94.00
2023-10-08T22:43:47.144Z,94.20
2023-10-08T22:46:35.052Z,93.90
2023-10-08T22:49:22.089Z,94.20
2023-10-08T22:52:10.952Z,94.20
2023-10-08T22:54:59.587Z,94.40
2023-10-08T22:57:45.551Z,95.00
2023-10-08T23:00:31.598Z,95.90
2023-10-08T23:03:25.850Z,96.00
2023-10-08T23:06:16.401Z,96.30
2023-10-08T23:09:03.939Z,96.50
2023-10-08T23:11:50.943Z,96.60
2023-10-08T23:14:37.998Z,96.70
2023-10-08T23:17:25.094Z,96.70
2023-10-08T23:20:12.585Z,96.70
2023-10-08T23:23:01.005Z,96.70
2023-10-08T23:25:50.763Z,96.70
2023-10-08T23:28:37.716Z,96.60
2023-10-08T23:31:24.289Z,96.70
2023-10-08T23:34:15.450Z,96.70
2023-10-08T23:37:10.826Z,96.70
2023-10-08T23:39:56.841Z,97.00
2023-10-08T23:42:46.094Z,96.90
2023-10-08T23:45:32.397Z,96.90
2023-10-08T23:48:21.597Z,96.90
2023-10-08T23:51:10.805Z,96.50
2023-10-08T23:54:02.762Z,96.40
2023-10-08T23:56:50.522Z,96.20
2023-10-08T23:59:42.893Z,96.10
